Time;durP1;ratioP1;P1;durP2;ratioP2;P2;SDS_P1;SDS_P2;PMS_P1;PMS_P2;Temp;Humidity;BMP_temperature;BMP_pressure;BME280_temperature;BME280_humidity;BME280_pressure;Samples;Min_cycle;Max_cycle;Signal;HPM_P1;HPM_P2
2022/11/11 00:00:34;;;;;;;10.27;5.22;;;;;;;9.13;100.00;101904.84;8356132;28;20049;-49
2022/11/11 00:04:54;;;;;;;14.00;5.20;;;;;;;9.16;100.00;101907.34;8348078;28;20041;-49
2022/11/11 00:09:15;;;;;;;11.73;5.20;;;;;;;9.06;100.00;101920.53;8356352;28;20186;-49
2022/11/11 00:13:37;;;;;;;12.75;5.38;;;;;;;9.00;100.00;101917.38;8329583;28;20529;-49
2022/11/11 00:27:18;;;;;;;10.05;5.28;;;;;;;8.75;100.00;101907.25;8314383;28;20044;-51
2022/11/11 00:32:21;;;;;;;9.07;5.07;;;;;;;8.72;100.00;101911.97;8322549;28;20124;-49
2022/11/11 00:36:18;;;;;;;14.40;6.18;;;;;;;8.63;100.00;101931.41;8318504;28;20038;-49
2022/11/11 00:40:39;;;;;;;10.82;6.00;;;;;;;8.53;100.00;101947.28;8322244;28;20399;-50
2022/11/11 00:45:00;;;;;;;8.38;5.40;;;;;;;8.53;100.00;101952.66;8322450;28;20120;-49
2022/11/11 00:54:00;;;;;;;11.55;5.78;;;;;;;8.48;100.00;101948.53;8320879;28;20133;-50
2022/11/11 00:58:22;;;;;;;17.90;6.38;;;;;;;8.52;100.00;101944.66;8331734;28;20056;-49
2022/11/11 01:02:43;;;;;;;10.85;5.32;;;;;;;8.57;100.00;101937.19;8354832;28;20064;-50
2022/11/11 01:07:03;;;;;;;10.60;5.10;;;;;;;8.65;100.00;101918.69;8348799;28;20049;-49
2022/11/11 01:11:24;;;;;;;11.20;5.60;;;;;;;8.69;100.00;101941.84;8340687;28;20581;-49
2022/11/11 01:15:49;;;;;;;13.75;5.63;;;;;;;8.72;100.00;101934.41;8320213;28;20403;-49
2022/11/11 01:20:10;;;;;;;12.98;5.53;;;;;;;8.79;100.00;101949.25;8349557;28;20495;-51
2022/11/11 01:24:30;;;;;;;10.90;5.47;;;;;;;8.66;100.00;101952.81;8353577;28;20033;-50
2022/11/11 01:28:53;;;;;;;12.20;5.47;;;;;;;8.56;100.00;101962.38;8332601;28;20037;-49
2022/11/11 01:33:13;;;;;;;12.75;5.60;;;;;;;8.40;100.00;101962.44;8333217;28;20040;-50
2022/11/11 01:37:35;;;;;;;9.95;6.20;;;;;;;8.12;100.00;101969.53;8349023;28;20037;-49
2022/11/11 01:41:55;;;;;;;13.05;6.82;;;;;;;7.96;100.00;101972.22;8346028;28;20403;-49
2022/11/11 01:46:28;;;;;;;11.50;5.93;;;;;;;8.04;100.00;101973.53;8339190;28;20123;-49
2022/11/11 01:50:57;;;;;;;14.10;6.80;;;;;;;8.11;100.00;101965.09;8352538;28;20537;-49
2022/11/11 01:55:21;;;;;;;13.30;7.45;;;;;;;8.12;100.00;101966.81;8339795;28;20037;-49
2022/11/11 01:59:45;;;;;;;12.15;6.30;;;;;;;8.07;100.00;101975.16;8353773;28;20045;-50
2022/11/11 02:08:46;;;;;;;14.82;7.35;;;;;;;7.87;100.00;101972.78;8353107;28;20043;-50
2022/11/11 02:14:47;;;;;;;15.15;7.95;;;;;;;7.93;100.00;101978.66;8333776;28;20100;-51
2022/11/11 02:17:55;;;;;;;15.45;8.27;;;;;;;7.74;100.00;101977.09;8345319;28;20036;-51
2022/11/11 02:22:26;;;;;;;17.50;8.77;;;;;;;7.79;100.00;101970.53;8352879;28;20078;-49
2022/11/11 02:26:48;;;;;;;18.30;8.75;;;;;;;7.84;100.00;101972.97;8349709;28;20159;-50
2022/11/11 02:31:08;;;;;;;19.33;9.18;;;;;;;7.68;100.00;101962.19;8325329;28;20073;-50
2022/11/11 02:35:33;;;;;;;17.55;7.78;;;;;;;7.71;100.00;101967.38;8349591;28;20494;-53
2022/11/11 02:40:00;;;;;;;11.93;7.45;;;;;;;7.84;100.00;101968.41;8350331;28;20045;-50
2022/11/11 02:44:21;;;;;;;16.70;7.22;;;;;;;7.86;100.00;101961.13;8353329;28;20036;-52
2022/11/11 02:48:41;;;;;;;16.25;7.18;;;;;;;7.86;100.00;101971.91;8356393;28;20192;-53
2022/11/11 02:53:02;;;;;;;14.93;6.35;;;;;;;7.92;100.00;101966.16;8356940;28;20525;-53
2022/11/11 02:57:22;;;;;;;15.13;7.50;;;;;;;7.78;100.00;101958.00;8350190;28;20048;-52
2022/11/11 03:02:18;;;;;;;16.42;7.40;;;;;;;7.64;100.00;101971.38;8358444;28;20140;-49
2022/11/11 03:06:38;;;;;;;11.75;7.32;;;;;;;7.51;100.00;101964.94;8354192;28;20052;-50
2022/11/11 03:10:58;;;;;;;15.20;7.30;;;;;;;7.45;100.00;101959.94;8360498;28;20072;-51
2022/11/11 03:15:19;;;;;;;13.70;7.68;;;;;;;7.40;100.00;101962.00;8357210;28;20406;-50
2022/11/11 03:19:39;;;;;;;17.48;7.80;;;;;;;7.34;100.00;101965.03;8357316;28;20040;-50
2022/11/11 03:24:00;;;;;;;12.85;8.02;;;;;;;7.33;100.00;101968.69;8357708;28;20041;-51
2022/11/11 03:28:20;;;;;;;16.60;7.55;;;;;;;7.37;100.00;101972.94;8312580;28;20499;-50
2022/11/11 03:32:42;;;;;;;18.10;7.97;;;;;;;7.30;100.00;101978.72;8333363;28;20253;-51
2022/11/11 03:38:38;;;;;;;18.08;7.05;;;;;;;7.19;100.00;101976.63;8357870;28;20044;-51
2022/11/11 03:41:46;;;;;;;12.80;6.97;;;;;;;7.26;100.00;101980.69;8357027;28;20502;-53
2022/11/11 03:46:06;;;;;;;17.38;7.97;;;;;;;7.19;100.00;101970.38;8356683;28;20045;-52
2022/11/11 03:50:27;;;;;;;11.90;6.10;;;;;;;7.16;100.00;101963.34;8349641;28;20032;-51
2022/11/11 03:54:47;;;;;;;14.25;6.75;;;;;;;7.19;100.00;101957.78;8355109;28;20037;-50
2022/11/11 03:59:07;;;;;;;12.48;6.43;;;;;;;7.20;100.00;101964.91;8358308;28;20041;-52
2022/11/11 04:17:35;;;;;;;6.70;4.85;;;;;;;7.30;100.00;101979.59;8356889;28;20033;-49
2022/11/11 04:21:55;;;;;;;11.95;5.80;;;;;;;7.51;100.00;101970.31;8356397;28;20067;-49
2022/11/11 04:26:15;;;;;;;7.97;4.80;;;;;;;7.54;100.00;101969.31;8356220;28;20040;-48
2022/11/11 04:30:36;;;;;;;11.75;5.95;;;;;;;7.50;100.00;101968.59;8344589;28;20048;-48
2022/11/11 04:34:59;;;;;;;14.77;7.05;;;;;;;7.48;100.00;101965.09;8354327;28;20502;-48
2022/11/11 04:45:32;;;;;;;16.08;7.63;;;;;;;7.32;100.00;101976.84;8355118;28;20041;-49
2022/11/11 04:48:41;;;;;;;16.25;7.15;;;;;;;7.09;100.00;101966.44;8356243;28;20075;-49
2022/11/11 04:53:04;;;;;;;18.20;9.63;;;;;;;6.87;100.00;101966.75;8355036;28;20045;-50
2022/11/11 04:57:24;;;;;;;16.05;7.13;;;;;;;6.88;100.00;101973.84;8350753;28;20036;-49
2022/11/11 05:11:06;;;;;;;17.23;7.72;;;;;;;6.85;100.00;101987.47;8352029;28;20237;-48
2022/11/11 05:21:24;;;;;;;16.88;8.57;;;;;;;6.99;100.00;101987.59;8321061;28;20530;-48
2022/11/11 05:25:49;;;;;;;12.73;7.63;;;;;;;6.97;100.00;101984.13;8345699;28;20119;-49
2022/11/11 05:29:29;;;;;;;15.60;7.68;;;;;;;6.98;100.00;101975.09;8351546;28;20520;-50
2022/11/11 05:33:50;;;;;;;18.65;9.43;;;;;;;6.98;100.00;101975.09;8349354;28;20033;-49
2022/11/11 05:38:26;;;;;;;20.75;8.85;;;;;;;6.97;100.00;101984.13;8353347;28;20057;-48
2022/11/11 05:42:46;;;;;;;17.17;8.25;;;;;;;6.88;100.00;101983.72;8353244;28;20040;-49
2022/11/11 05:47:07;;;;;;;21.52;9.57;;;;;;;6.79;100.00;101985.09;8353538;28;20065;-48
2022/11/11 05:51:27;;;;;;;17.98;9.25;;;;;;;6.83;100.00;101986.66;8353528;28;20148;-49
2022/11/11 05:55:50;;;;;;;20.38;9.07;;;;;;;6.94;100.00;101988.78;8352021;28;20033;-49
2022/11/11 06:00:11;;;;;;;17.52;8.60;;;;;;;7.05;100.00;101991.78;8328823;28;20049;-49
2022/11/11 06:04:33;;;;;;;19.95;9.05;;;;;;;7.17;100.00;102002.72;8327752;28;20398;-49
2022/11/11 06:08:54;;;;;;;14.82;7.60;;;;;;;7.23;100.00;102013.16;8352591;28;20605;-49
2022/11/11 06:13:14;;;;;;;17.13;8.73;;;;;;;7.21;100.00;102012.38;8351453;28;20044;-49
2022/11/11 06:17:35;;;;;;;20.33;8.57;;;;;;;7.06;100.00;102009.63;8351954;28;20521;-52
2022/11/11 06:21:55;;;;;;;20.48;9.88;;;;;;;6.87;100.00;102015.13;8353034;28;20052;-48
2022/11/11 06:26:16;;;;;;;18.83;10.32;;;;;;;6.67;100.00;102034.09;8358818;28;20112;-48
2022/11/11 06:30:37;;;;;;;19.30;9.93;;;;;;;6.63;100.00;102029.84;8351469;28;20052;-49
2022/11/11 06:34:58;;;;;;;23.42;11.10;;;;;;;6.82;100.00;102037.81;8346390;28;20518;-50
2022/11/11 06:39:18;;;;;;;21.33;10.05;;;;;;;6.78;100.00;102045.19;8354771;28;20126;-52
2022/11/11 06:43:40;;;;;;;14.63;8.55;;;;;;;6.79;100.00;102049.59;8359004;28;20558;-50
2022/11/11 06:48:01;;;;;;;17.75;9.85;;;;;;;6.92;100.00;102044.47;8359275;28;20049;-49
2022/11/11 06:52:22;;;;;;;18.33;8.88;;;;;;;7.11;100.00;102051.47;8355984;28;20049;-50
2022/11/11 06:56:42;;;;;;;17.27;8.40;;;;;;;7.16;100.00;102032.38;8359115;28;20398;-50
2022/11/11 07:01:04;;;;;;;18.70;8.77;;;;;;;7.32;100.00;102055.69;8359048;28;20146;-51
2022/11/11 07:05:25;;;;;;;20.35;9.00;;;;;;;7.24;100.00;102067.81;8358553;28;20403;-50
2022/11/11 07:09:45;;;;;;;19.13;9.75;;;;;;;7.17;100.00;102061.03;8358949;28;20091;-49
2022/11/11 07:14:06;;;;;;;18.27;8.90;;;;;;;7.19;100.00;102062.69;8330340;28;20049;-49
2022/11/11 07:18:26;;;;;;;16.55;9.15;;;;;;;7.32;100.00;102053.00;8325766;28;20060;-49
2022/11/11 07:22:47;;;;;;;26.50;9.77;;;;;;;7.44;100.00;102054.19;8325529;28;20125;-48
2022/11/11 07:27:07;;;;;;;22.05;10.40;;;;;;;7.57;100.00;102072.25;8324048;28;20053;-51
2022/11/11 07:31:29;;;;;;;21.10;10.10;;;;;;;7.72;100.00;102073.25;8292704;28;20042;-49
2022/11/11 07:35:49;;;;;;;27.55;11.13;;;;;;;7.72;100.00;102065.19;8320394;28;20037;-49
2022/11/11 07:40:12;;;;;;;25.55;12.20;;;;;;;7.79;100.00;102083.59;8325530;28;20068;-49
2022/11/11 07:44:32;;;;;;;38.25;11.48;;;;;;;7.81;100.00;102080.81;8324586;28;20049;-51
2022/11/11 07:48:53;;;;;;;22.48;8.80;;;;;;;7.91;100.00;102077.53;8316161;28;20042;-50
2022/11/11 07:53:13;;;;;;;20.73;10.13;;;;;;;8.00;100.00;102082.38;8325198;28;20041;-49
2022/11/11 07:57:34;;;;;;;17.30;9.77;;;;;;;8.14;100.00;102091.53;8328693;28;20457;-49
2022/11/11 08:01:54;;;;;;;18.95;8.82;;;;;;;8.22;100.00;102086.56;8357497;28;20387;-52
2022/11/11 08:06:17;;;;;;;19.90;9.43;;;;;;;8.30;100.00;102087.91;8357354;28;20036;-49
2022/11/11 08:10:37;;;;;;;18.58;9.77;;;;;;;8.40;100.00;102099.00;8358210;28;20575;-53
2022/11/11 08:14:57;;;;;;;18.88;10.45;;;;;;;8.50;100.00;102108.28;8326674;28;20450;-50
2022/11/11 08:19:18;;;;;;;17.13;9.80;;;;;;;8.65;100.00;102110.09;8352754;28;20174;-49
2022/11/11 08:23:38;;;;;;;21.38;9.82;;;;;;;8.73;100.00;102113.22;8357119;28;20517;-49
2022/11/11 08:28:01;;;;;;;16.15;9.02;;;;;;;8.90;100.00;102121.19;8321982;28;20065;-50
2022/11/11 08:32:21;;;;;;;22.67;10.40;;;;;;;8.94;100.00;102114.66;8326257;28;20549;-49
2022/11/11 08:36:42;;;;;;;17.38;8.63;;;;;;;9.15;100.00;102121.47;8355874;28;20047;-49
2022/11/11 08:41:04;;;;;;;25.05;10.20;;;;;;;9.35;100.00;102126.53;8349734;28;20228;-49
2022/11/11 08:45:25;;;;;;;22.25;11.35;;;;;;;9.65;100.00;102113.84;8355033;28;20033;-49
2022/11/11 08:49:48;;;;;;;17.88;10.30;;;;;;;9.86;100.00;102112.50;8356265;28;20032;-51
2022/11/11 08:54:08;;;;;;;25.88;9.90;;;;;;;10.16;100.00;102115.97;8355339;28;20079;-49
2022/11/11 08:58:29;;;;;;;18.63;9.85;;;;;;;10.29;100.00;102116.03;8355469;28;20503;-49
2022/11/11 09:02:50;;;;;;;20.50;8.75;;;;;;;10.44;100.00;102121.31;8355404;28;20406;-51
2022/11/11 09:07:11;;;;;;;16.52;8.13;;;;;;;10.62;100.00;102106.59;8328348;28;20053;-50
2022/11/11 09:11:35;;;;;;;16.00;7.97;;;;;;;10.93;99.05;102098.13;8326204;28;20095;-49
2022/11/11 09:15:55;;;;;;;14.82;8.02;;;;;;;11.27;98.22;102111.09;8321901;28;20056;-49
2022/11/11 09:20:15;;;;;;;18.05;8.93;;;;;;;11.52;95.41;102113.81;8322788;28;20048;-50
2022/11/11 09:24:36;;;;;;;17.50;8.45;;;;;;;11.56;95.22;102115.31;8354905;28;20036;-50
2022/11/11 09:28:56;;;;;;;26.17;9.57;;;;;;;11.95;94.27;102121.63;8320114;28;20038;-49
2022/11/11 09:33:18;;;;;;;12.50;6.60;;;;;;;12.36;92.33;102116.78;8334975;28;20036;-49
2022/11/11 09:37:39;;;;;;;20.70;10.00;;;;;;;12.38;90.72;102114.81;8352741;28;20558;-50
2022/11/11 09:46:45;;;;;;;13.15;6.50;;;;;;;13.19;87.49;102123.03;8350304;27;20410;-48
2022/11/11 09:51:14;;;;;;;13.88;6.03;;;;;;;13.31;86.68;102111.22;8349849;28;20084;-49
2022/11/11 09:55:40;;;;;;;10.07;5.72;;;;;;;13.53;86.02;102107.69;8349013;28;20056;-50
2022/11/11 10:00:04;;;;;;;14.23;6.00;;;;;;;13.96;85.17;102116.03;8349709;28;20037;-48
2022/11/11 10:04:42;;;;;;;14.48;6.40;;;;;;;14.34;84.41;102111.94;8349378;28;20040;-48
2022/11/11 10:09:17;;;;;;;13.02;5.32;;;;;;;14.61;81.46;102120.53;8348125;28;20045;-51
2022/11/11 10:13:38;;;;;;;9.45;5.45;;;;;;;15.03;80.24;102106.03;8348864;28;20041;-49
2022/11/11 10:18:15;;;;;;;8.13;4.20;;;;;;;14.75;80.41;102111.22;8348695;28;20076;-51
2022/11/11 10:22:39;;;;;;;7.78;4.10;;;;;;;14.48;81.05;102103.50;8349281;28;20060;-48
2022/11/11 10:27:06;;;;;;;7.22;4.90;;;;;;;14.39;81.65;102109.69;8349298;28;20049;-48
2022/11/11 10:31:27;;;;;;;8.93;3.97;;;;;;;14.41;80.77;102105.00;8316096;28;20124;-50
2022/11/11 10:35:49;;;;;;;5.28;3.58;;;;;;;14.71;79.08;102094.28;8315261;28;20042;-49
2022/11/11 10:40:20;;;;;;;8.13;3.92;;;;;;;14.85;80.18;102118.50;8316566;28;20411;-52
2022/11/11 10:44:41;;;;;;;8.23;4.00;;;;;;;14.94;80.01;102122.28;8315251;28;20041;-49
2022/11/11 10:49:15;;;;;;;8.80;4.38;;;;;;;14.94;79.74;102123.16;8315298;28;20045;-48
2022/11/11 10:53:47;;;;;;;7.05;4.05;;;;;;;15.76;77.91;102113.34;8315667;28;20034;-51
2022/11/11 10:58:18;;;;;;;12.85;4.18;;;;;;;15.64;77.47;102121.59;8301495;28;20045;-48
2022/11/11 11:02:46;;;;;;;5.57;3.45;;;;;;;15.27;78.07;102114.84;8325926;28;20061;-48
2022/11/11 11:07:10;;;;;;;5.22;2.80;;;;;;;16.24;76.62;102117.16;8326439;28;20054;-49
2022/11/11 11:11:40;;;;;;;3.90;2.87;;;;;;;17.48;70.50;102097.19;8325689;28;20042;-49
2022/11/11 11:16:07;;;;;;;7.13;3.05;;;;;;;17.93;68.99;102102.84;8324026;28;20102;-48
2022/11/11 11:20:27;;;;;;;4.72;2.72;;;;;;;17.60;69.88;102100.66;8325890;28;20482;-48
2022/11/11 11:24:48;;;;;;;5.43;2.63;;;;;;;17.54;69.15;102096.59;8324417;28;20037;-48
2022/11/11 11:29:08;;;;;;;6.97;2.63;;;;;;;17.96;67.96;102094.31;8323740;28;20049;-48
2022/11/11 11:33:50;;;;;;;4.55;2.30;;;;;;;18.07;67.81;102094.16;8325112;28;20120;-49
2022/11/11 11:38:12;;;;;;;3.33;1.70;;;;;;;19.09;65.08;102089.19;8323481;28;20048;-49
2022/11/11 11:42:36;;;;;;;6.40;2.40;;;;;;;19.23;63.42;102094.13;8324378;28;20033;-52
2022/11/11 11:47:12;;;;;;;2.80;1.75;;;;;;;19.58;61.96;102084.16;8323903;28;20044;-49
2022/11/11 11:51:51;;;;;;;3.83;1.60;;;;;;;19.10;61.94;102079.09;8324860;28;20041;-48
2022/11/11 12:00:50;;;;;;;3.75;1.67;;;;;;;17.62;66.12;102076.72;8403161;27;20383;-48
2022/11/11 12:09:59;;;;;;;3.72;1.30;;;;;;;18.12;66.18;102083.63;8350752;27;20400;-48
2022/11/11 12:14:46;;;;;;;3.90;1.80;;;;;;;18.83;63.42;102060.84;8349912;28;20124;-50
2022/11/11 12:24:18;;;;;;;3.80;1.30;;;;;;;19.46;61.79;102065.19;8485353;27;20342;-49
2022/11/11 12:29:18;;;;;;;3.05;1.23;;;;;;;19.75;61.11;102061.25;8483583;27;20035;-49
2022/11/11 12:34:04;;;;;;;3.20;1.10;;;;;;;20.22;60.22;102041.44;8481116;27;20122;-51
2022/11/11 12:43:33;;;;;;;6.00;1.33;;;;;;;19.23;62.13;102044.75;8418530;27;20438;-50
2022/11/11 12:48:21;;;;;;;3.35;1.25;;;;;;;18.56;64.64;102029.91;8408746;28;20394;-49
2022/11/11 12:53:05;;;;;;;2.05;1.08;;;;;;;17.86;66.67;102033.31;8416041;28;20037;-51
2022/11/11 12:57:40;;;;;;;4.30;1.30;;;;;;;17.51;67.93;102027.69;8408209;28;20040;-49
2022/11/11 13:02:40;;;;;;;4.15;1.23;;;;;;;17.21;67.46;102022.41;8410287;28;20498;-49
2022/11/11 13:07:40;;;;;;;4.55;1.60;;;;;;;17.11;68.23;102033.34;8414979;28;20127;-49
2022/11/11 13:12:10;;;;;;;4.45;1.33;;;;;;;17.08;68.62;102027.31;8394867;28;20060;-57
2022/11/11 13:16:31;;;;;;;2.35;1.30;;;;;;;17.16;68.73;102019.22;8402623;28;20078;-49
2022/11/11 13:21:11;;;;;;;2.85;1.20;;;;;;;16.88;69.20;102031.06;8413110;28;20044;-52
2022/11/11 13:25:35;;;;;;;10.05;1.48;;;;;;;16.90;69.43;102021.69;8406983;28;20536;-56
2022/11/11 13:30:35;;;;;;;4.55;1.45;;;;;;;17.01;69.22;102016.09;8410998;28;20043;-54
2022/11/11 13:34:57;;;;;;;5.75;1.70;;;;;;;17.05;70.01;102014.78;8385403;28;20630;-55
2022/11/11 13:39:30;;;;;;;5.00;1.33;;;;;;;16.76;71.48;102011.22;8381858;28;20037;-53
2022/11/11 13:43:54;;;;;;;5.72;1.55;;;;;;;16.72;72.32;102011.66;8379578;28;20116;-55
2022/11/11 13:48:21;;;;;;;5.70;1.80;;;;;;;16.75;72.05;102003.16;8380508;28;20387;-55
2022/11/11 13:52:55;;;;;;;4.03;1.33;;;;;;;16.63;71.69;102009.78;8360672;28;20041;-56
2022/11/11 13:57:22;;;;;;;4.25;1.20;;;;;;;16.74;71.59;102015.97;8350791;28;20401;-56
2022/11/11 14:01:42;;;;;;;4.22;1.45;;;;;;;16.62;71.70;102013.53;8346068;28;20041;-56
2022/11/11 14:14:53;;;;;;;3.50;1.05;;;;;;;16.85;72.04;102004.03;8415876;27;20913;-55
2022/11/11 14:23:42;;;;;;;1.95;0.75;;;;;;;16.83;70.65;102000.56;8384902;27;20882;-56
2022/11/11 14:28:04;;;;;;;3.55;1.05;;;;;;;16.84;70.08;102002.31;8366842;27;20045;-52
2022/11/11 14:32:45;;;;;;;3.38;1.00;;;;;;;16.87;69.88;102002.03;8350411;28;20045;-53
2022/11/11 14:37:24;;;;;;;4.25;1.13;;;;;;;16.79;70.72;101999.13;8350037;28;20550;-55
2022/11/11 14:41:48;;;;;;;2.53;1.55;;;;;;;16.77;71.29;102006.63;8363745;28;20148;-54
2022/11/11 14:46:10;;;;;;;2.67;1.08;;;;;;;16.56;72.60;102004.03;8356151;28;20068;-56
2022/11/11 14:55:18;;;;;;;4.25;1.52;;;;;;;16.38;73.54;102024.78;8402232;27;20397;-55
2022/11/11 14:59:38;;;;;;;10.55;1.63;;;;;;;16.16;74.82;102021.47;8397244;27;20034;-53
2022/11/11 15:04:02;;;;;;;6.43;2.28;;;;;;;16.03;75.51;102031.75;8415663;27;20036;-54
2022/11/11 15:08:29;;;;;;;1.70;1.08;;;;;;;15.76;76.82;102026.06;8413041;27;20473;-54
2022/11/11 15:13:30;;;;;;;6.35;1.85;;;;;;;15.55;77.97;102016.06;8402195;28;20036;-56
2022/11/11 15:18:22;;;;;;;7.88;3.00;;;;;;;15.27;79.25;102011.28;8403621;28;20098;-55
2022/11/11 15:23:05;;;;;;;7.30;3.80;;;;;;;15.05;80.42;102014.16;8415347;28;20414;-55
2022/11/11 15:27:35;;;;;;;6.47;2.57;;;;;;;14.81;81.28;102012.66;8412318;28;20043;-54
2022/11/11 15:32:24;;;;;;;5.82;1.58;;;;;;;14.35;83.44;102007.56;8392606;27;20270;-55
2022/11/11 15:37:03;;;;;;;7.95;3.25;;;;;;;14.16;84.67;102014.63;8388522;27;20083;-56
2022/11/11 15:41:27;;;;;;;12.65;3.20;;;;;;;14.06;85.24;102014.50;8376510;28;20037;-55
2022/11/11 15:45:51;;;;;;;;;;;;;;;14.00;85.20;102020.44;8398783;27;20082;-55
2022/11/11 15:50:27;;;;;;;14.80;5.88;;;;;;;13.76;86.08;102017.03;8386192;27;19943;-56
2022/11/11 15:54:49;;;;;;;9.45;4.10;;;;;;;13.61;87.02;102027.25;8396584;27;20052;-55
2022/11/11 15:59:21;;;;;;;10.00;2.70;;;;;;;13.42;87.72;102034.31;8395416;27;20057;-54
2022/11/11 16:03:43;;;;;;;5.97;3.75;;;;;;;13.29;88.44;102028.09;8387957;27;20476;-52
2022/11/11 16:08:09;;;;;;;10.90;4.38;;;;;;;13.12;88.86;102031.28;8343667;28;20048;-51
2022/11/11 16:12:43;;;;;;;12.20;5.20;;;;;;;12.95;89.43;102034.41;8365378;28;20102;-53
2022/11/11 16:17:04;;;;;;;9.17;4.10;;;;;;;12.82;90.17;102033.63;8363060;28;20045;-51
2022/11/11 16:21:48;;;;;;;12.02;3.78;;;;;;;12.67;90.78;102034.81;8362307;28;20569;-51
2022/11/11 16:26:09;;;;;;;7.38;3.20;;;;;;;12.06;93.39;102034.97;8370693;28;20045;-54
2022/11/11 16:30:35;;;;;;;9.85;4.47;;;;;;;12.00;94.73;102032.69;8374668;28;20527;-50
2022/11/11 16:34:56;;;;;;;5.78;3.83;;;;;;;11.98;94.88;102021.13;8360849;28;20064;-51
2022/11/11 16:39:19;;;;;;;7.63;3.75;;;;;;;12.06;94.00;102022.28;8357927;28;20044;-51
2022/11/11 16:43:41;;;;;;;4.97;3.28;;;;;;;12.03;93.68;102021.63;8341365;28;20144;-51
2022/11/11 16:48:02;;;;;;;8.15;3.55;;;;;;;11.91;94.24;102023.41;8345450;28;20041;-52
2022/11/11 16:52:23;;;;;;;6.35;3.22;;;;;;;11.78;94.54;102028.00;8349749;28;20033;-50
2022/11/11 16:56:50;;;;;;;5.32;2.72;;;;;;;11.84;94.54;102022.97;8361718;28;20055;-51
2022/11/11 17:01:11;;;;;;;9.90;3.97;;;;;;;11.70;94.69;102024.97;8358005;28;20111;-52
2022/11/11 17:05:56;;;;;;;5.32;4.15;;;;;;;11.67;94.35;102030.59;8354326;28;20044;-51
2022/11/11 17:10:20;;;;;;;11.30;5.15;;;;;;;11.34;95.38;102023.03;8347137;28;20037;-54
2022/11/11 17:14:40;;;;;;;11.23;6.53;;;;;;;11.25;96.34;102028.22;8350129;28;20043;-53
2022/11/11 17:19:02;;;;;;;15.70;8.52;;;;;;;11.06;98.12;102028.66;8393407;28;20464;-54
2022/11/11 17:23:22;;;;;;;22.20;12.07;;;;;;;10.94;98.44;102024.09;8422903;28;20039;-52
2022/11/11 17:27:44;;;;;;;22.27;11.82;;;;;;;10.81;98.78;102017.78;8412269;28;20474;-51
2022/11/11 17:32:05;;;;;;;16.77;8.13;;;;;;;10.73;99.96;102027.41;8347365;28;20052;-53
2022/11/11 17:36:26;;;;;;;9.93;5.95;;;;;;;10.52;100.00;102021.59;8371094;28;20033;-54
2022/11/11 17:40:47;;;;;;;11.23;5.28;;;;;;;10.57;100.00;102030.28;8387840;28;20072;-51
2022/11/11 17:45:08;;;;;;;10.73;6.75;;;;;;;10.49;100.00;102026.38;8374359;28;20132;-52
2022/11/11 17:49:29;;;;;;;15.68;6.50;;;;;;;10.39;100.00;102030.63;8348185;28;20091;-52
2022/11/11 17:53:50;;;;;;;13.15;5.05;;;;;;;10.31;100.00;102033.00;8360317;28;20103;-53
2022/11/11 17:58:12;;;;;;;12.38;5.30;;;;;;;10.16;100.00;102029.50;8376325;28;20379;-51
2022/11/11 18:02:32;;;;;;;13.38;4.90;;;;;;;10.05;100.00;102031.97;8368050;28;20468;-51
2022/11/11 18:06:53;;;;;;;14.32;5.88;;;;;;;9.89;100.00;102036.66;8366840;28;20036;-50
2022/11/11 18:11:14;;;;;;;12.18;5.72;;;;;;;9.75;100.00;102033.97;8355516;28;20041;-52
2022/11/11 18:15:34;;;;;;;11.73;5.85;;;;;;;9.71;100.00;102043.22;8387457;28;20040;-54
2022/11/11 18:19:55;;;;;;;10.23;5.78;;;;;;;9.63;100.00;102040.16;8393356;28;20346;-52
2022/11/11 18:24:15;;;;;;;7.03;5.20;;;;;;;9.44;100.00;102050.38;8418697;28;20089;-50
2022/11/11 18:28:37;;;;;;;12.45;4.95;;;;;;;9.05;100.00;102048.31;8397760;28;20402;-51
2022/11/11 18:32:58;;;;;;;10.20;5.57;;;;;;;8.99;100.00;102051.38;8358830;28;20063;-50
2022/11/11 18:37:18;;;;;;;10.75;4.75;;;;;;;8.91;100.00;102055.50;8349815;28;20101;-53
2022/11/11 18:41:38;;;;;;;9.70;6.45;;;;;;;8.88;100.00;102061.09;8366634;28;20116;-53
2022/11/11 18:46:05;;;;;;;8.13;5.38;;;;;;;8.79;100.00;102064.34;8353822;28;20120;-52
2022/11/11 18:50:25;;;;;;;23.23;9.00;;;;;;;8.86;100.00;102058.47;8335851;28;20045;-54
2022/11/11 18:54:46;;;;;;;9.23;5.57;;;;;;;9.05;100.00;102055.53;8334030;28;20033;-51
2022/11/11 18:59:07;;;;;;;12.68;5.55;;;;;;;9.26;100.00;102051.50;8349969;28;20045;-52
2022/11/11 19:03:27;;;;;;;16.88;8.43;;;;;;;9.25;100.00;102057.88;8359711;28;20041;-51
2022/11/11 19:07:48;;;;;;;18.30;8.20;;;;;;;9.31;100.00;102060.22;8366342;28;20052;-51
2022/11/11 19:12:08;;;;;;;9.88;6.32;;;;;;;9.26;100.00;102060.50;8373809;28;20067;-53
2022/11/11 19:16:30;;;;;;;13.88;6.47;;;;;;;9.03;100.00;102070.97;8402337;28;20421;-53
2022/11/11 19:20:51;;;;;;;9.80;6.90;;;;;;;8.62;100.00;102073.41;8384341;28;20029;-54
2022/11/11 19:25:11;;;;;;;11.48;6.15;;;;;;;8.59;100.00;102076.28;8383387;28;20067;-50
2022/11/11 19:29:32;;;;;;;10.32;6.90;;;;;;;8.72;100.00;102076.47;8373584;28;20037;-55
2022/11/11 19:33:53;;;;;;;13.85;5.88;;;;;;;8.74;100.00;102069.13;8366712;28;20098;-55
2022/11/11 19:38:13;;;;;;;9.93;5.80;;;;;;;8.44;100.00;102065.53;8369206;28;20120;-52
2022/11/11 19:42:34;;;;;;;9.95;6.85;;;;;;;8.66;100.00;102076.81;8345917;28;20084;-55
2022/11/11 19:46:54;;;;;;;12.48;5.65;;;;;;;8.86;100.00;102079.19;8331980;28;20414;-54
2022/11/11 19:51:18;;;;;;;14.43;5.75;;;;;;;8.95;100.00;102078.63;8340619;28;20037;-54
2022/11/11 19:55:39;;;;;;;13.32;5.93;;;;;;;8.89;99.94;102079.88;8340931;28;20048;-55
2022/11/11 20:00:00;;;;;;;8.43;5.35;;;;;;;8.65;100.00;102085.84;8364791;28;20490;-55
2022/11/11 20:04:20;;;;;;;7.07;4.78;;;;;;;8.64;100.00;102084.13;8373103;28;20044;-50
2022/11/11 20:08:40;;;;;;;9.05;5.78;;;;;;;8.52;100.00;102084.81;8373638;28;20029;-52
2022/11/11 20:13:01;;;;;;;11.57;5.95;;;;;;;8.64;100.00;102073.31;8371616;28;20502;-52
2022/11/11 20:17:22;;;;;;;10.20;5.95;;;;;;;8.71;99.81;102067.50;8372150;28;20337;-53
2022/11/11 20:21:43;;;;;;;14.38;6.07;;;;;;;8.74;98.62;102069.13;8372375;28;20614;-52
2022/11/11 20:26:07;;;;;;;8.15;5.00;;;;;;;8.81;98.66;102076.75;8372711;28;20044;-52
2022/11/11 20:30:27;;;;;;;18.43;7.97;;;;;;;8.85;98.00;102072.06;8356798;28;20037;-52
2022/11/11 20:34:47;;;;;;;10.07;6.03;;;;;;;8.79;97.18;102077.81;8369412;28;20038;-51
2022/11/11 20:39:08;;;;;;;9.60;5.80;;;;;;;8.87;96.30;102086.31;8339412;28;20036;-53
2022/11/11 20:43:30;;;;;;;11.57;5.90;;;;;;;8.85;95.79;102094.53;8342863;28;20036;-51
2022/11/11 20:47:51;;;;;;;8.32;6.20;;;;;;;8.85;94.77;102093.63;8382128;28;20028;-53
2022/11/11 20:52:11;;;;;;;8.35;5.50;;;;;;;8.88;94.29;102093.44;8372725;28;20041;-51
2022/11/11 20:56:32;;;;;;;10.88;5.57;;;;;;;8.86;94.10;102100.75;8351415;28;20048;-52
2022/11/11 21:00:53;;;;;;;16.63;8.80;;;;;;;8.86;94.43;102108.84;8375574;28;20502;-53
2022/11/11 21:05:14;;;;;;;14.00;5.60;;;;;;;8.78;94.54;102094.97;8377463;28;20090;-51
2022/11/11 21:09:35;;;;;;;6.85;4.60;;;;;;;8.71;94.39;102101.66;8382535;28;20608;-53
2022/11/11 21:13:57;;;;;;;9.13;4.60;;;;;;;8.70;94.15;102099.94;8381045;28;20599;-54
2022/11/11 21:18:18;;;;;;;10.32;4.63;;;;;;;8.66;93.84;102110.00;8383867;28;20040;-51
2022/11/11 21:22:38;;;;;;;7.97;5.13;;;;;;;8.62;94.68;102104.88;8381589;28;20036;-54
2022/11/11 21:26:59;;;;;;;10.85;5.40;;;;;;;8.52;94.97;102101.00;8381981;28;20058;-51
2022/11/11 21:31:25;;;;;;;6.72;5.00;;;;;;;8.31;95.70;102099.53;8385572;28;20123;-54
2022/11/11 21:35:46;;;;;;;21.33;10.52;;;;;;;8.08;96.63;102109.75;8385089;28;20098;-50
2022/11/11 21:40:08;;;;;;;17.85;9.73;;;;;;;7.95;98.40;102106.03;8359672;28;20502;-51
2022/11/11 21:44:28;;;;;;;11.05;7.68;;;;;;;7.46;98.69;102104.28;8355511;28;20119;-49
2022/11/11 21:48:51;;;;;;;11.52;7.10;;;;;;;7.49;100.00;102108.59;8363430;28;20044;-49
2022/11/11 21:53:12;;;;;;;11.60;7.45;;;;;;;7.45;100.00;102099.84;8368337;28;20127;-49